Time;durP1;ratioP1;P1;durP2;ratioP2;P2;SDS_P1;SDS_P2;PMS_P1;PMS_P2;Temp;Humidity;BMP_temperature;BMP_pressure;BME280_temperature;BME280_humidity;BME280_pressure;Samples;Min_cycle;Max_cycle;Signal;HPM_P1;HPM_P2
2023/05/23 00:02:14;;;;;;;7.28;6.05;;;;;;;;;;10097835;28;20070;-67
2023/05/23 00:07:12;;;;;;;7.45;4.75;;;;;;;;;;10098141;28;20474;-68
2023/05/23 00:12:12;;;;;;;9.60;6.68;;;;;;;;;;10098190;28;20094;-67
2023/05/23 00:17:11;;;;;;;12.02;5.43;;;;;;;;;;10097379;28;20075;-68
2023/05/23 00:22:09;;;;;;;6.97;6.28;;;;;;;;;;10097822;28;20082;-67
2023/05/23 00:27:07;;;;;;;8.20;6.03;;;;;;;;;;10097738;28;20081;-67
2023/05/23 00:32:07;;;;;;;7.80;6.70;;;;;;;;;;10096935;28;20075;-68
2023/05/23 00:37:05;;;;;;;9.85;5.82;;;;;;;;;;10098477;28;20078;-67
2023/05/23 00:42:04;;;;;;;8.73;6.15;;;;;;;;;;10092442;28;20047;-67
2023/05/23 00:47:02;;;;;;;8.65;6.50;;;;;;;;;;10096986;28;20077;-67
2023/05/23 00:52:03;;;;;;;9.07;6.03;;;;;;;;;;10109252;28;20043;-68
2023/05/23 00:57:01;;;;;;;8.15;6.35;;;;;;;;;;10097098;28;20474;-67
2023/05/23 01:02:00;;;;;;;8.55;5.70;;;;;;;;;;10092647;28;20081;-67
2023/05/23 01:06:59;;;;;;;8.02;6.10;;;;;;;;;;10098266;28;20078;-67
2023/05/23 01:12:02;;;;;;;6.70;6.05;;;;;;;;;;10101048;28;20074;-66
2023/05/23 01:17:02;;;;;;;12.05;7.47;;;;;;;;;;10097562;28;20075;-68
2023/05/23 01:22:01;;;;;;;11.75;7.45;;;;;;;;;;10098474;28;20074;-67
2023/05/23 01:27:07;;;;;;;8.23;6.63;;;;;;;;;;10098249;28;20086;-67
2023/05/23 01:32:10;;;;;;;9.25;6.97;;;;;;;;;;10095101;28;20075;-67
2023/05/23 01:37:09;;;;;;;8.38;7.20;;;;;;;;;;10095590;28;20075;-67
2023/05/23 01:42:08;;;;;;;8.07;7.38;;;;;;;;;;10101568;28;20066;-67
2023/05/23 01:47:09;;;;;;;10.75;7.03;;;;;;;;;;10095682;28;20075;-67
2023/05/23 01:52:09;;;;;;;11.05;7.22;;;;;;;;;;10099947;28;20512;-67
2023/05/23 01:57:09;;;;;;;7.70;7.00;;;;;;;;;;10107314;28;20086;-67
2023/05/23 02:02:09;;;;;;;7.10;6.20;;;;;;;;;;10099974;28;20078;-67
2023/05/23 02:07:07;;;;;;;7.88;6.68;;;;;;;;;;10102132;28;20504;-67
2023/05/23 02:12:06;;;;;;;6.55;5.75;;;;;;;;;;10104043;28;20085;-68
2023/05/23 02:17:04;;;;;;;8.35;5.90;;;;;;;;;;10105976;28;20073;-67
2023/05/23 02:22:04;;;;;;;8.73;6.15;;;;;;;;;;10104138;28;20081;-67
2023/05/23 02:27:02;;;;;;;12.85;7.00;;;;;;;;;;10107366;28;20071;-66
2023/05/23 02:32:01;;;;;;;7.80;6.93;;;;;;;;;;10105371;28;20066;-68
2023/05/23 02:37:00;;;;;;;8.68;6.57;;;;;;;;;;10102103;28;20522;-67
2023/05/23 02:42:00;;;;;;;8.40;7.60;;;;;;;;;;10103207;28;20082;-67
2023/05/23 02:46:59;;;;;;;19.77;9.50;;;;;;;;;;10101659;28;20063;-67
2023/05/23 02:51:57;;;;;;;19.25;9.38;;;;;;;;;;10101750;28;20077;-67
2023/05/23 02:56:57;;;;;;;24.75;9.15;;;;;;;;;;10117522;28;20082;-67
2023/05/23 03:01:57;;;;;;;11.13;9.52;;;;;;;;;;10123865;28;20571;-66
2023/05/23 03:06:55;;;;;;;11.05;7.72;;;;;;;;;;10116603;28;20078;-67
2023/05/23 03:11:53;;;;;;;8.88;7.97;;;;;;;;;;10102463;28;20073;-67
2023/05/23 03:16:53;;;;;;;7.32;6.65;;;;;;;;;;10103033;28;20078;-66
2023/05/23 03:21:52;;;;;;;8.10;7.22;;;;;;;;;;10094923;28;20073;-65
2023/05/23 03:26:51;;;;;;;7.75;7.05;;;;;;;;;;10092956;28;20370;-66
2023/05/23 03:31:49;;;;;;;9.35;7.20;;;;;;;;;;10098020;28;20071;-67
2023/05/23 03:36:47;;;;;;;10.70;7.85;;;;;;;;;;10092319;28;20063;-66
2023/05/23 03:41:47;;;;;;;9.77;8.32;;;;;;;;;;10086865;28;20086;-67
2023/05/23 03:46:46;;;;;;;13.75;7.85;;;;;;;;;;10096224;28;20091;-67
2023/05/23 03:51:46;;;;;;;13.07;7.28;;;;;;;;;;10093773;28;20070;-67
2023/05/23 03:56:48;;;;;;;10.18;7.38;;;;;;;;;;10099076;28;20043;-67
2023/05/23 04:01:46;;;;;;;8.95;8.07;;;;;;;;;;10096050;28;20078;-68
2023/05/23 04:06:45;;;;;;;10.40;8.10;;;;;;;;;;10098270;28;20075;-68
2023/05/23 04:11:44;;;;;;;9.90;8.90;;;;;;;;;;10098554;28;20066;-67
2023/05/23 04:16:44;;;;;;;10.95;9.68;;;;;;;;;;10098856;28;20543;-68
2023/05/23 04:21:43;;;;;;;12.45;10.60;;;;;;;;;;10094310;28;20082;-68
2023/05/23 04:26:45;;;;;;;10.00;8.80;;;;;;;;;;10090528;28;20090;-67
2023/05/23 04:31:45;;;;;;;10.90;9.90;;;;;;;;;;10095619;28;20067;-67
2023/05/23 04:36:45;;;;;;;14.43;13.00;;;;;;;;;;10094588;28;20075;-67
2023/05/23 04:41:44;;;;;;;13.57;10.23;;;;;;;;;;10103458;28;20081;-68
2023/05/23 04:46:55;;;;;;;15.25;9.52;;;;;;;;;;10109083;28;20496;-67
2023/05/23 04:51:59;;;;;;;10.55;9.20;;;;;;;;;;10095105;28;20093;-67
2023/05/23 04:56:59;;;;;;;13.10;10.55;;;;;;;;;;10093542;28;20077;-67
2023/05/23 05:02:00;;;;;;;11.75;10.65;;;;;;;;;;10092621;28;20074;-68
2023/05/23 05:06:59;;;;;;;13.27;11.15;;;;;;;;;;10093620;28;20089;-68
2023/05/23 05:11:58;;;;;;;20.25;10.98;;;;;;;;;;10108587;28;20082;-67
2023/05/23 05:16:56;;;;;;;12.35;10.60;;;;;;;;;;10106746;28;20085;-67
2023/05/23 05:22:03;;;;;;;17.25;12.18;;;;;;;;;;10089619;28;20097;-67
2023/05/23 05:27:02;;;;;;;14.77;11.20;;;;;;;;;;10092111;28;20090;-67
2023/05/23 05:32:02;;;;;;;12.32;11.15;;;;;;;;;;10108461;28;20492;-67
2023/05/23 05:37:01;;;;;;;11.20;10.15;;;;;;;;;;10109959;28;20078;-67
2023/05/23 05:42:06;;;;;;;13.77;11.15;;;;;;;;;;10115104;28;20096;-67
2023/05/23 05:47:05;;;;;;;12.95;11.35;;;;;;;;;;10101592;28;20089;-68
2023/05/23 05:52:05;;;;;;;11.60;10.25;;;;;;;;;;10101381;28;20082;-68
2023/05/23 05:57:06;;;;;;;14.95;11.05;;;;;;;;;;10104797;28;20079;-68
2023/05/23 06:02:05;;;;;;;14.15;9.98;;;;;;;;;;10101567;28;20105;-68
2023/05/23 06:07:04;;;;;;;13.50;10.93;;;;;;;;;;10100054;28;20086;-68
2023/05/23 06:12:03;;;;;;;14.48;11.45;;;;;;;;;;10102730;28;20089;-68
2023/05/23 06:17:06;;;;;;;13.57;10.38;;;;;;;;;;10102673;28;20071;-69
2023/05/23 06:22:05;;;;;;;14.13;11.57;;;;;;;;;;10112802;28;20389;-68
2023/05/23 06:27:07;;;;;;;13.55;11.68;;;;;;;;;;10112446;28;20083;-68
2023/05/23 06:32:07;;;;;;;13.65;10.48;;;;;;;;;;10103335;28;20079;-68
2023/05/23 06:37:08;;;;;;;16.42;12.25;;;;;;;;;;10097882;28;20051;-68
2023/05/23 06:42:07;;;;;;;16.25;10.23;;;;;;;;;;10114745;28;20047;-68
2023/05/23 06:47:23;;;;;;;13.93;10.63;;;;;;;;;;10098676;28;20227;-68
2023/05/23 06:52:21;;;;;;;16.88;11.10;;;;;;;;;;10097396;28;20085;-67
2023/05/23 06:57:19;;;;;;;14.95;10.32;;;;;;;;;;10115891;28;20079;-67
2023/05/23 07:02:18;;;;;;;13.60;10.73;;;;;;;;;;10100169;28;20457;-67
2023/05/23 07:07:18;;;;;;;13.50;10.57;;;;;;;;;;10111539;28;20520;-68
2023/05/23 07:12:16;;;;;;;10.32;9.32;;;;;;;;;;10100339;28;20508;-68
2023/05/23 07:17:17;;;;;;;15.02;10.13;;;;;;;;;;10110390;28;20047;-67
2023/05/23 07:22:18;;;;;;;9.85;8.85;;;;;;;;;;10112577;28;20081;-68
2023/05/23 07:27:16;;;;;;;9.63;7.53;;;;;;;;;;10100155;28;20519;-68
2023/05/23 07:32:15;;;;;;;9.68;7.80;;;;;;;;;;10097997;28;20059;-67
2023/05/23 07:37:15;;;;;;;10.35;7.10;;;;;;;;;;10096573;28;20081;-67
2023/05/23 07:42:16;;;;;;;20.13;6.95;;;;;;;;;;10101191;28;20093;-66
2023/05/23 07:47:15;;;;;;;10.75;6.70;;;;;;;;;;10099681;28;20157;-68
2023/05/23 07:52:13;;;;;;;9.07;7.18;;;;;;;;;;10098266;28;20555;-68
2023/05/23 07:57:14;;;;;;;10.73;7.60;;;;;;;;;;10098644;28;20296;-68
2023/05/23 08:02:15;;;;;;;10.27;6.80;;;;;;;;;;10094208;28;20079;-67
2023/05/23 08:07:14;;;;;;;11.98;5.45;;;;;;;;;;10093572;28;20492;-67
2023/05/23 08:12:21;;;;;;;8.18;6.63;;;;;;;;;;10093806;28;20057;-68
2023/05/23 08:17:29;;;;;;;7.95;6.25;;;;;;;;;;10093420;28;20086;-67
2023/05/23 08:22:28;;;;;;;10.15;8.30;;;;;;;;;;10093937;28;20055;-68
2023/05/23 08:27:29;;;;;;;6.57;5.60;;;;;;;;;;10094542;28;20086;-68
2023/05/23 08:32:33;;;;;;;12.48;7.78;;;;;;;;;;10096225;28;20082;-68
2023/05/23 08:37:32;;;;;;;6.88;5.65;;;;;;;;;;10108930;28;20081;-68
2023/05/23 08:42:30;;;;;;;8.32;6.65;;;;;;;;;;10098938;28;20077;-67
2023/05/23 08:47:30;;;;;;;9.20;6.50;;;;;;;;;;10092816;28;20085;-67
2023/05/23 08:52:35;;;;;;;9.20;7.17;;;;;;;;;;10094125;28;20066;-67
2023/05/23 08:57:34;;;;;;;8.82;6.80;;;;;;;;;;10090424;28;20093;-68
2023/05/23 09:02:48;;;;;;;8.30;6.28;;;;;;;;;;10090724;28;20093;-68
2023/05/23 09:08:08;;;;;;;8.90;6.00;;;;;;;;;;10095463;28;20484;-67
2023/05/23 09:13:08;;;;;;;9.77;7.10;;;;;;;;;;10093891;28;20078;-66
2023/05/23 09:18:08;;;;;;;7.63;5.95;;;;;;;;;;10090853;28;20540;-67
2023/05/23 09:23:08;;;;;;;9.32;5.65;;;;;;;;;;10096216;28;20481;-67
2023/05/23 09:28:09;;;;;;;5.70;5.20;;;;;;;;;;10091353;28;20090;-68
2023/05/23 09:33:11;;;;;;;8.40;5.70;;;;;;;;;;10109333;28;20098;-68
2023/05/23 09:38:11;;;;;;;4.95;4.40;;;;;;;;;;10089978;28;20082;-67
2023/05/23 09:43:09;;;;;;;6.38;4.63;;;;;;;;;;10107223;28;20093;-68
2023/05/23 09:48:11;;;;;;;4.90;4.43;;;;;;;;;;10093389;28;20090;-67
2023/05/23 09:53:11;;;;;;;7.65;4.90;;;;;;;;;;10099844;28;20079;-68
2023/05/23 09:58:10;;;;;;;5.93;4.68;;;;;;;;;;10095073;28;20078;-68
2023/05/23 10:03:11;;;;;;;8.63;5.03;;;;;;;;;;10092371;28;20054;-66
2023/05/23 10:08:14;;;;;;;6.55;4.47;;;;;;;;;;10095176;28;20503;-69
2023/05/23 10:13:12;;;;;;;7.18;4.28;;;;;;;;;;10094603;28;20077;-66
2023/05/23 10:18:12;;;;;;;9.10;5.20;;;;;;;;;;10094338;28;20093;-67
2023/05/23 10:23:12;;;;;;;5.13;4.47;;;;;;;;;;10101683;28;20082;-68
2023/05/23 10:28:11;;;;;;;4.80;4.20;;;;;;;;;;10096002;28;20100;-65
2023/05/23 10:33:12;;;;;;;6.93;4.07;;;;;;;;;;10103197;28;20082;-65
2023/05/23 10:38:18;;;;;;;6.13;5.53;;;;;;;;;;10103089;28;20070;-65
2023/05/23 10:43:22;;;;;;;5.38;4.88;;;;;;;;;;10102901;28;20070;-66
2023/05/23 10:48:21;;;;;;;;;;;;;;;;;;10100216;28;20100;-65
2023/05/23 10:53:23;;;;;;;6.75;4.43;;;;;;;;;;10100691;28;19961;-66
2023/05/23 10:58:21;;;;;;;5.95;4.10;;;;;;;;;;10095239;28;20058;-66
2023/05/23 11:03:32;;;;;;;6.75;3.60;;;;;;;;;;10100877;28;20488;-67
2023/05/23 11:08:41;;;;;;;5.60;3.80;;;;;;;;;;10100761;28;20097;-66
2023/05/23 11:13:55;;;;;;;5.60;3.90;;;;;;;;;;10100928;28;20154;-66
2023/05/23 11:19:21;;;;;;;4.03;3.63;;;;;;;;;;10099548;28;20093;-65
2023/05/23 11:24:21;;;;;;;7.18;4.65;;;;;;;;;;10100945;28;20090;-65
2023/05/23 11:29:20;;;;;;;6.30;4.30;;;;;;;;;;10099257;28;20098;-66
2023/05/23 11:34:18;;;;;;;6.85;4.78;;;;;;;;;;10096158;28;20479;-65
2023/05/23 11:39:18;;;;;;;6.53;4.13;;;;;;;;;;10099819;28;20070;-66
2023/05/23 11:44:17;;;;;;;8.23;4.82;;;;;;;;;;10100157;28;20062;-66
2023/05/23 11:49:16;;;;;;;5.93;4.30;;;;;;;;;;10099605;28;20085;-65
2023/05/23 11:54:14;;;;;;;4.60;4.15;;;;;;;;;;10098930;28;20508;-66
2023/05/23 11:59:12;;;;;;;4.85;4.07;;;;;;;;;;10098520;28;20071;-66
2023/05/23 12:04:12;;;;;;;4.10;3.70;;;;;;;;;;10098802;28;20493;-66
2023/05/23 12:09:11;;;;;;;9.00;7.22;;;;;;;;;;10098900;28;20078;-67
2023/05/23 12:14:09;;;;;;;5.35;4.07;;;;;;;;;;10097652;28;20074;-67
2023/05/23 12:19:08;;;;;;;5.72;2.95;;;;;;;;;;10098305;28;20066;-65
2023/05/23 12:24:13;;;;;;;35.13;6.68;;;;;;;;;;10094388;28;20472;-66
2023/05/23 12:29:11;;;;;;;5.38;4.38;;;;;;;;;;10096660;28;20082;-64
2023/05/23 12:34:11;;;;;;;6.80;3.92;;;;;;;;;;10097399;28;20066;-64
2023/05/23 12:39:09;;;;;;;5.65;3.63;;;;;;;;;;10097537;28;20504;-65
2023/05/23 12:44:08;;;;;;;6.57;4.35;;;;;;;;;;10096902;28;20071;-65
2023/05/23 12:49:07;;;;;;;5.00;3.80;;;;;;;;;;10095364;28;20478;-65
2023/05/23 12:54:05;;;;;;;7.38;3.63;;;;;;;;;;10096656;28;20066;-65
2023/05/23 12:59:03;;;;;;;6.28;3.13;;;;;;;;;;10095703;28;20086;-66
2023/05/23 13:04:03;;;;;;;3.80;2.85;;;;;;;;;;10097155;28;20100;-67
2023/05/23 13:09:02;;;;;;;6.85;4.13;;;;;;;;;;10096551;28;20078;-67
2023/05/23 13:14:00;;;;;;;5.65;3.03;;;;;;;;;;10095270;28;20063;-66
2023/05/23 13:18:58;;;;;;;4.13;3.55;;;;;;;;;;10096434;28;20481;-66
2023/05/23 13:23:58;;;;;;;6.85;3.38;;;;;;;;;;10096016;28;20089;-66
2023/05/23 13:28:56;;;;;;;5.13;2.70;;;;;;;;;;10096770;28;20075;-66
2023/05/23 13:33:55;;;;;;;4.25;3.25;;;;;;;;;;10090939;28;20051;-67
2023/05/23 13:38:53;;;;;;;10.75;9.20;;;;;;;;;;10094886;28;20086;-66
2023/05/23 13:43:53;;;;;;;13.52;4.28;;;;;;;;;;10096385;28;20503;-69
2023/05/23 13:48:51;;;;;;;7.78;4.03;;;;;;;;;;10094347;28;20470;-68
2023/05/23 13:53:49;;;;;;;26.23;4.25;;;;;;;;;;10096933;28;20079;-68
2023/05/23 13:58:48;;;;;;;5.03;3.20;;;;;;;;;;10104672;28;20066;-66
2023/05/23 14:03:47;;;;;;;4.07;3.03;;;;;;;;;;10103233;28;20071;-66
2023/05/23 14:08:46;;;;;;;6.13;3.20;;;;;;;;;;10101277;28;20085;-66
2023/05/23 14:13:44;;;;;;;3.60;3.30;;;;;;;;;;10100697;28;20105;-66
2023/05/23 14:18:43;;;;;;;4.53;3.45;;;;;;;;;;10101754;28;20085;-67
2023/05/23 14:23:43;;;;;;;12.52;4.47;;;;;;;;;;10100920;28;20078;-66
2023/05/23 14:28:41;;;;;;;11.50;5.00;;;;;;;;;;10102250;28;20094;-67
2023/05/23 14:33:39;;;;;;;10.45;5.75;;;;;;;;;;10100751;28;20527;-67
2023/05/23 14:38:38;;;;;;;12.13;3.20;;;;;;;;;;10099786;28;20071;-66
2023/05/23 14:43:38;;;;;;;6.55;3.00;;;;;;;;;;10101824;28;20074;-66
2023/05/23 14:48:36;;;;;;;4.85;2.78;;;;;;;;;;10100925;28;20493;-66
2023/05/23 14:53:34;;;;;;;4.97;3.10;;;;;;;;;;10101947;28;20089;-66
2023/05/23 14:58:32;;;;;;;5.88;3.45;;;;;;;;;;10100224;28;20074;-66
2023/05/23 15:03:32;;;;;;;8.57;3.83;;;;;;;;;;10100493;28;20075;-66
2023/05/23 15:08:30;;;;;;;8.00;3.53;;;;;;;;;;10099830;28;20075;-66
2023/05/23 15:13:29;;;;;;;4.63;3.33;;;;;;;;;;10100487;28;20175;-65
2023/05/23 15:18:27;;;;;;;4.75;3.10;;;;;;;;;;10099848;28;20078;-67
2023/05/23 15:23:40;;;;;;;6.45;3.13;;;;;;;;;;10101210;28;20086;-66
2023/05/23 15:28:38;;;;;;;6.45;3.50;;;;;;;;;;10099519;28;20519;-65
2023/05/23 15:33:36;;;;;;;6.82;3.05;;;;;;;;;;10099616;28;20475;-66
2023/05/23 15:38:35;;;;;;;7.00;3.60;;;;;;;;;;10098456;28;20078;-66
2023/05/23 15:43:35;;;;;;;5.15;3.00;;;;;;;;;;10099306;28;20083;-66
2023/05/23 15:48:36;;;;;;;6.28;3.53;;;;;;;;;;10098407;28;20081;-66
2023/05/23 15:53:34;;;;;;;5.03;3.70;;;;;;;;;;10099105;28;20078;-67
2023/05/23 15:58:54;;;;;;;4.90;4.38;;;;;;;;;;10098718;28;20098;-67
2023/05/23 16:03:52;;;;;;;7.20;4.38;;;;;;;;;;10097837;28;20085;-67
2023/05/23 16:08:50;;;;;;;4.78;4.00;;;;;;;;;;10095595;28;20082;-67
2023/05/23 16:13:49;;;;;;;6.55;4.43;;;;;;;;;;10092476;28;20085;-65
2023/05/23 16:18:48;;;;;;;11.18;6.57;;;;;;;;;;10095962;28;20127;-65
2023/05/23 16:23:47;;;;;;;11.68;3.97;;;;;;;;;;10096570;28;20086;-66
2023/05/23 16:28:46;;;;;;;7.43;4.32;;;;;;;;;;10096395;28;20083;-67
2023/05/23 16:33:44;;;;;;;5.47;4.97;;;;;;;;;;10096635;28;20527;-67
2023/05/23 16:38:44;;;;;;;10.18;4.32;;;;;;;;;;10096758;28;20083;-67
2023/05/23 16:43:42;;;;;;;8.48;3.90;;;;;;;;;;10096843;28;20073;-67
2023/05/23 16:48:40;;;;;;;17.95;4.68;;;;;;;;;;10095584;28;20080;-66
2023/05/23 16:53:39;;;;;;;8.38;4.25;;;;;;;;;;10095674;28;20071;-67
2023/05/23 16:58:38;;;;;;;11.75;5.05;;;;;;;;;;10095988;28;20097;-67
2023/05/23 17:03:40;;;;;;;5.30;3.03;;;;;;;;;;10096919;28;20081;-67
2023/05/23 17:08:38;;;;;;;4.13;3.13;;;;;;;;;;10092454;28;20453;-66
2023/05/23 17:13:37;;;;;;;5.82;3.90;;;;;;;;;;10107519;28;20500;-66
2023/05/23 17:18:39;;;;;;;7.40;4.93;;;;;;;;;;10094697;28;20075;-66
2023/05/23 17:23:37;;;;;;;6.68;4.15;;;;;;;;;;10094805;28;20171;-66
2023/05/23 17:28:35;;;;;;;3.92;3.50;;;;;;;;;;10094097;28;20074;-66
2023/05/23 17:33:33;;;;;;;11.07;7.47;;;;;;;;;;10094687;28;20070;-66
2023/05/23 17:38:33;;;;;;;7.07;4.55;;;;;;;;;;10095764;28;20681;-66
2023/05/23 17:43:31;;;;;;;7.55;3.92;;;;;;;;;;10094218;28;20070;-66
2023/05/23 17:48:29;;;;;;;7.78;3.80;;;;;;;;;;10095055;28;20075;-66
2023/05/23 17:53:45;;;;;;;8.85;3.65;;;;;;;;;;10094665;28;20526;-66
2023/05/23 17:58:43;;;;;;;5.05;3.70;;;;;;;;;;10095598;28;20175;-67
2023/05/23 18:03:41;;;;;;;4.15;3.35;;;;;;;;;;10094671;28;20070;-67
2023/05/23 18:08:40;;;;;;;6.38;3.03;;;;;;;;;;10095702;28;20450;-67
2023/05/23 18:13:40;;;;;;;6.40;3.30;;;;;;;;;;10094435;28;20070;-66
2023/05/23 18:18:38;;;;;;;4.00;3.60;;;;;;;;;;10094386;28;20466;-66
2023/05/23 18:23:37;;;;;;;4.57;3.75;;;;;;;;;;10091680;28;20099;-66
2023/05/23 18:28:35;;;;;;;6.55;3.20;;;;;;;;;;10093924;28;20571;-67
2023/05/23 18:33:35;;;;;;;4.05;3.60;;;;;;;;;;10093111;28;20091;-66
2023/05/23 18:38:34;;;;;;;8.60;4.00;;;;;;;;;;10093799;28;20105;-66
2023/05/23 18:43:32;;;;;;;6.25;3.75;;;;;;;;;;10099120;28;20078;-66
2023/05/23 18:48:34;;;;;;;4.00;3.60;;;;;;;;;;10098077;28;20078;-66
2023/05/23 18:53:34;;;;;;;4.40;3.42;;;;;;;;;;10101244;28;20070;-66
2023/05/23 18:58:32;;;;;;;6.75;3.42;;;;;;;;;;10100031;28;20077;-66
2023/05/23 19:03:32;;;;;;;5.03;3.63;;;;;;;;;;10100781;28;20089;-66
2023/05/23 19:08:31;;;;;;;4.88;3.92;;;;;;;;;;10106270;28;20078;-68
2023/05/23 19:13:30;;;;;;;4.93;3.40;;;;;;;;;;10104004;28;20066;-68
2023/05/23 19:18:29;;;;;;;4.07;3.38;;;;;;;;;;10100536;28;20077;-67
2023/05/23 19:23:27;;;;;;;3.42;3.13;;;;;;;;;;10100685;28;20086;-67
2023/05/23 19:28:25;;;;;;;7.38;3.67;;;;;;;;;;10103386;28;20082;-68
2023/05/23 19:33:25;;;;;;;5.18;3.65;;;;;;;;;;10101283;28;20078;-67
2023/05/23 19:38:24;;;;;;;5.10;3.85;;;;;;;;;;10103504;28;20079;-68
2023/05/23 19:43:22;;;;;;;5.13;3.60;;;;;;;;;;10102039;28;20070;-69
2023/05/23 19:48:20;;;;;;;5.22;3.60;;;;;;;;;;10099758;28;20066;-66
2023/05/23 19:53:21;;;;;;;6.82;3.30;;;;;;;;;;10099546;28;20066;-66
2023/05/23 19:58:19;;;;;;;5.00;4.13;;;;;;;;;;10100118;28;20062;-68
2023/05/23 20:03:18;;;;;;;7.22;3.92;;;;;;;;;;10112786;28;20078;-68
2023/05/23 20:08:16;;;;;;;5.70;3.88;;;;;;;;;;10101549;28;20062;-67
2023/05/23 20:13:16;;;;;;;5.80;3.72;;;;;;;;;;10103256;28;20081;-67
2023/05/23 20:18:14;;;;;;;9.13;5.50;;;;;;;;;;10105711;28;20788;-66
2023/05/23 20:23:13;;;;;;;9.25;5.82;;;;;;;;;;10097426;28;20077;-68
2023/05/23 20:28:11;;;;;;;6.43;5.68;;;;;;;;;;10098139;28;20074;-67
2023/05/23 20:33:10;;;;;;;13.18;8.40;;;;;;;;;;10101677;28;20078;-68
2023/05/23 20:38:12;;;;;;;7.65;5.43;;;;;;;;;;10100068;28;20085;-67
2023/05/23 20:43:10;;;;;;;7.75;4.55;;;;;;;;;;10097523;28;20098;-69
2023/05/23 20:48:08;;;;;;;6.20;4.25;;;;;;;;;;10094976;28;20072;-68
2023/05/23 20:53:08;;;;;;;6.63;5.10;;;;;;;;;;10090353;28;20074;-67
2023/05/23 20:58:09;;;;;;;5.95;4.90;;;;;;;;;;10094453;28;20082;-67
2023/05/23 21:03:07;;;;;;;5.85;5.10;;;;;;;;;;10097823;28;20097;-68
2023/05/23 21:08:05;;;;;;;7.22;5.47;;;;;;;;;;10096382;28;20078;-68
2023/05/23 21:13:08;;;;;;;6.25;5.32;;;;;;;;;;10094897;28;20071;-67
2023/05/23 21:18:09;;;;;;;8.40;6.50;;;;;;;;;;10097809;28;20091;-67
2023/05/23 21:23:07;;;;;;;9.48;6.45;;;;;;;;;;10057946;28;1107199;-68
2023/05/23 21:28:07;;;;;;;7.85;5.80;;;;;;;;;;10097531;28;20544;-68
2023/05/23 21:33:05;;;;;;;11.13;5.82;;;;;;;;;;10097302;28;20074;-68
2023/05/23 21:38:03;;;;;;;9.00;6.40;;;;;;;;;;10097034;28;20515;-67
2023/05/23 21:43:02;;;;;;;9.77;5.28;;;;;;;;;;10096339;28;20070;-68
2023/05/23 21:48:01;;;;;;;6.93;5.85;;;;;;;;;;10099868;28;20097;-66
2023/05/23 21:52:59;;;;;;;9.23;6.90;;;;;;;;;;10096608;28;20504;-67
2023/05/23 21:57:58;;;;;;;6.95;6.25;;;;;;;;;;10098060;28;20074;-68
2023/05/23 22:02:56;;;;;;;8.13;5.82;;;;;;;;;;10099594;28;20081;-68
2023/05/23 22:07:56;;;;;;;7.95;4.80;;;;;;;;;;10098164;28;20070;-68
2023/05/23 22:12:54;;;;;;;9.25;6.10;;;;;;;;;;10098384;28;20066;-68
2023/05/23 22:17:52;;;;;;;6.18;5.57;;;;;;;;;;10103478;28;20070;-67
2023/05/23 22:22:50;;;;;;;11.90;7.80;;;;;;;;;;10104220;28;20093;-68
2023/05/23 22:27:50;;;;;;;7.93;5.80;;;;;;;;;;10104258;28;20066;-69
2023/05/23 22:32:48;;;;;;;5.95;5.35;;;;;;;;;;10106326;28;20485;-68
2023/05/23 22:37:47;;;;;;;12.23;5.20;;;;;;;;;;10104904;28;20074;-68
2023/05/23 22:42:45;;;;;;;9.52;4.93;;;;;;;;;;10105725;28;20067;-67
2023/05/23 22:47:47;;;;;;;6.88;5.05;;;;;;;;;;10105418;28;20091;-67
2023/05/23 22:52:47;;;;;;;6.18;4.72;;;;;;;;;;10106101;28;20101;-67
2023/05/23 22:57:45;;;;;;;6.78;4.50;;;;;;;;;;10102559;28;20070;-67
2023/05/23 23:02:44;;;;;;;7.68;4.13;;;;;;;;;;10103815;28;20485;-67
2023/05/23 23:07:43;;;;;;;4.25;3.85;;;;;;;;;;10104636;28;20505;-67
2023/05/23 23:12:41;;;;;;;7.15;4.07;;;;;;;;;;10102852;28;20381;-67
2023/05/23 23:17:39;;;;;;;5.90;4.38;;;;;;;;;;10101600;28;20066;-68
2023/05/23 23:22:39;;;;;;;5.32;4.55;;;;;;;;;;10102529;28;20078;-68
2023/05/23 23:27:37;;;;;;;4.45;4.05;;;;;;;;;;10099309;28;20063;-69
2023/05/23 23:32:36;;;;;;;4.82;4.43;;;;;;;;;;10097281;28;20085;-69
2023/05/23 23:37:34;;;;;;;5.32;4.63;;;;;;;;;;10101888;28;20074;-68
2023/05/23 23:42:34;;;;;;;5.05;4.28;;;;;;;;;;10101552;28;20093;-69
2023/05/23 23:47:32;;;;;;;4.68;3.90;;;;;;;;;;10103875;28;20074;-68
2023/05/23 23:52:30;;;;;;;5.25;4.72;;;;;;;;;;10100990;28;20075;-68
2023/05/23 23:57:28;;;;;;;11.40;4.75;;;;;;;;;;10101283;28;20529;-68
